Time;durP1;ratioP1;P1;durP2;ratioP2;P2;SDS_P1;SDS_P2;PMS_P1;PMS_P2;Temp;Humidity;BMP_temperature;BMP_pressure;BME280_temperature;BME280_humidity;BME280_pressure;Samples;Min_cycle;Max_cycle;Signal;HPM_P1;HPM_P2
2022/11/19 00:03:56;;;;;;;5.55;3.35;;;;;;;-0.63;100.00;101207.06;10560470;28;20623;-72
2022/11/19 00:08:57;;;;;;;4.27;3.33;;;;;;;-0.71;100.00;101207.09;10540654;28;20032;-72
2022/11/19 00:13:57;;;;;;;5.80;3.37;;;;;;;-0.80;100.00;101216.25;10540343;28;20028;-72
2022/11/19 00:18:58;;;;;;;5.70;3.17;;;;;;;-0.92;100.00;101214.91;10541241;28;20069;-72
2022/11/19 00:23:58;;;;;;;5.33;3.20;;;;;;;-0.98;100.00;101216.44;10539314;28;20044;-71
2022/11/19 00:28:58;;;;;;;4.90;3.22;;;;;;;-1.05;100.00;101224.38;10539480;28;20024;-72
2022/11/19 00:33:59;;;;;;;6.83;3.90;;;;;;;-1.18;100.00;101207.81;10579089;27;20055;-72
2022/11/19 00:38:59;;;;;;;7.05;3.25;;;;;;;-1.19;100.00;101208.84;10581467;27;20486;-72
2022/11/19 00:44:00;;;;;;;6.07;4.10;;;;;;;-1.12;100.00;101227.91;10581420;28;20032;-72
2022/11/19 00:49:00;;;;;;;7.63;4.07;;;;;;;-1.12;100.00;101233.31;10582826;27;20072;-72
2022/11/19 00:54:01;;;;;;;7.10;3.80;;;;;;;-1.12;100.00;101236.84;10537686;28;20040;-72
2022/11/19 00:59:01;;;;;;;7.77;4.50;;;;;;;-1.25;100.00;101220.31;10537420;28;20062;-71
2022/11/19 01:04:02;;;;;;;7.07;3.87;;;;;;;-1.08;100.00;101246.31;10538548;28;20028;-71
2022/11/19 01:09:02;;;;;;;7.23;3.97;;;;;;;-1.09;100.00;101241.94;10539136;28;20036;-72
2022/11/19 01:14:03;;;;;;;7.23;3.93;;;;;;;-1.08;100.00;101265.22;10571088;28;20043;-71
2022/11/19 01:19:05;;;;;;;6.03;3.90;;;;;;;-1.22;100.00;101231.63;10562741;28;20032;-71
2022/11/19 01:24:05;;;;;;;5.97;3.67;;;;;;;-1.15;100.00;101245.31;10545878;28;20525;-72
2022/11/19 01:29:06;;;;;;;8.20;4.37;;;;;;;-1.19;100.00;101253.94;10581440;28;20039;-72
2022/11/19 01:34:06;;;;;;;7.23;4.60;;;;;;;-1.18;100.00;101275.34;10579884;28;20048;-72
2022/11/19 01:39:07;;;;;;;6.13;3.83;;;;;;;-1.31;100.00;101264.22;10581437;28;20069;-72
2022/11/19 01:44:44;;;;;;;5.83;3.60;;;;;;;-1.34;100.00;101286.16;10553563;28;20462;-71
2022/11/19 01:49:45;;;;;;;8.37;3.63;;;;;;;-1.44;100.00;101289.84;10561627;28;20513;-73
2022/11/19 01:54:46;;;;;;;6.73;3.97;;;;;;;-1.57;100.00;101297.59;10544864;28;20036;-73
2022/11/19 01:59:48;;;;;;;5.93;3.97;;;;;;;-1.65;100.00;101305.66;10544893;28;20194;-73
2022/11/19 02:04:50;;;;;;;8.77;4.07;;;;;;;-1.90;100.00;101296.59;10545743;28;20035;-73
2022/11/19 02:09:51;;;;;;;7.40;4.23;;;;;;;-1.96;100.00;101303.50;10545623;28;20060;-73
2022/11/19 02:15:06;;;;;;;7.80;4.80;;;;;;;-1.96;100.00;101327.81;10585302;27;20031;-73
2022/11/19 02:20:22;;;;;;;7.68;5.00;;;;;;;-2.06;100.00;101345.97;10628848;27;20118;-73
2022/11/19 02:25:37;;;;;;;8.13;4.97;;;;;;;-2.14;100.00;101338.66;10616315;27;20044;-73
2022/11/19 02:30:40;;;;;;;10.88;4.82;;;;;;;-2.26;100.00;101335.38;10569753;27;20494;-73
2022/11/19 02:35:43;;;;;;;9.13;4.70;;;;;;;-2.42;100.00;101319.09;10585788;27;20055;-74
2022/11/19 02:41:32;;;;;;;8.50;4.90;;;;;;;-2.34;100.00;101351.50;10585938;27;20081;-72
2022/11/19 02:46:21;;;;;;;9.27;5.67;;;;;;;-2.33;100.00;101353.19;10611279;27;20064;-73
2022/11/19 02:51:22;;;;;;;9.87;5.63;;;;;;;-2.41;100.00;101357.69;10593616;27;20065;-72
2022/11/19 02:56:46;;;;;;;8.33;5.27;;;;;;;-2.41;100.00;101372.03;10610963;27;20062;-72
2022/11/19 03:07:15;;;;;;;8.67;5.33;;;;;;;-2.60;100.00;101346.09;10627235;27;20042;-73
2022/11/19 03:12:38;;;;;;;8.83;5.50;;;;;;;-2.59;100.00;101355.88;10606867;27;20048;-73
2022/11/19 03:17:59;;;;;;;8.07;4.67;;;;;;;-2.58;100.00;101367.50;10584549;27;20039;-73
2022/11/19 03:23:10;;;;;;;9.93;5.67;;;;;;;-2.62;100.00;101374.22;10567933;28;20406;-73
2022/11/19 03:28:14;;;;;;;8.90;5.07;;;;;;;-2.69;100.00;101369.44;10582420;27;20055;-72
2022/11/19 03:33:26;;;;;;;7.97;5.30;;;;;;;-2.68;100.00;101378.38;10565967;27;20054;-73
2022/11/19 03:38:47;;;;;;;9.27;5.10;;;;;;;-2.67;100.00;101385.44;10551186;27;20379;-72
2022/11/19 03:43:52;;;;;;;7.93;4.50;;;;;;;-2.74;100.00;101393.31;10586672;27;20035;-73
2022/11/19 03:48:52;;;;;;;9.10;4.80;;;;;;;-2.84;100.00;101385.28;10565982;27;20040;-73
2022/11/19 03:53:52;;;;;;;7.83;4.73;;;;;;;-2.75;100.00;101396.16;10565355;27;20044;-73
2022/11/19 03:58:53;;;;;;;7.73;4.20;;;;;;;-2.82;100.00;101409.41;10564757;28;20065;-72
2022/11/19 04:09:12;;;;;;;8.90;5.40;;;;;;;-3.83;100.00;101274.03;10584839;27;20040;-73
2022/11/19 04:14:13;;;;;;;7.07;4.97;;;;;;;-3.23;100.00;101367.75;10547393;27;20490;-73
2022/11/19 04:19:14;;;;;;;8.53;5.00;;;;;;;-3.05;100.00;101409.00;10582670;27;20043;-73
2022/11/19 04:24:14;;;;;;;13.33;5.77;;;;;;;-2.99;100.00;101434.50;10581340;27;20097;-73
2022/11/19 04:29:15;;;;;;;8.50;4.67;;;;;;;-2.99;100.00;101439.88;10564503;27;20031;-73
2022/11/19 04:34:15;;;;;;;7.50;4.57;;;;;;;-3.11;100.00;101442.78;10582011;28;20065;-73
2022/11/19 04:39:16;;;;;;;9.17;5.40;;;;;;;-3.07;100.00;101465.72;10580513;27;20035;-73
2022/11/19 04:44:16;;;;;;;9.17;5.20;;;;;;;-3.13;100.00;101458.22;10564176;27;20043;-72
2022/11/19 04:49:16;;;;;;;7.57;5.20;;;;;;;-3.16;100.00;101455.88;10564358;27;20040;-73
2022/11/19 04:54:17;;;;;;;9.63;5.73;;;;;;;-3.22;100.00;101467.22;10581832;28;20048;-73
2022/11/19 04:59:19;;;;;;;9.47;5.53;;;;;;;-3.30;100.00;101459.88;10580208;27;20031;-73
2022/11/19 05:04:19;;;;;;;9.87;5.70;;;;;;;-3.26;100.00;101471.22;10582832;28;20040;-72
2022/11/19 05:09:19;;;;;;;10.90;5.97;;;;;;;-3.39;100.00;101455.41;10580270;27;20031;-74
2022/11/19 05:14:20;;;;;;;10.03;5.43;;;;;;;-3.31;100.00;101478.88;10584668;27;20103;-74
2022/11/19 05:19:20;;;;;;;10.87;6.00;;;;;;;-3.46;100.00;101455.13;10621603;27;20406;-74
2022/11/19 05:24:21;;;;;;;11.00;5.90;;;;;;;-3.45;100.00;101464.94;10622216;27;20036;-73
2022/11/19 05:29:21;;;;;;;10.40;5.40;;;;;;;-3.42;100.00;101473.69;10622354;27;20046;-73
2022/11/19 05:34:22;;;;;;;9.63;5.53;;;;;;;-3.41;100.00;101468.19;10624833;27;20042;-69
2022/11/19 05:39:22;;;;;;;10.77;6.47;;;;;;;-3.53;100.00;101461.28;10622523;27;21278;-73
2022/11/19 05:44:23;;;;;;;12.13;6.83;;;;;;;-3.51;100.00;101483.53;10562066;28;20044;-71
2022/11/19 05:49:23;;;;;;;10.20;5.70;;;;;;;-3.50;100.00;101482.50;10605862;27;20031;-73
2022/11/19 05:54:24;;;;;;;10.00;6.23;;;;;;;-3.55;100.00;101482.13;10595726;27;20035;-72
2022/11/19 05:59:24;;;;;;;7.80;4.80;;;;;;;-3.53;100.00;101494.41;10629951;27;20031;-73
2022/11/19 06:04:25;;;;;;;10.77;6.47;;;;;;;-3.59;100.00;101491.47;10594932;27;20465;-73
2022/11/19 06:09:25;;;;;;;12.03;6.70;;;;;;;-3.62;100.00;101497.97;10589616;27;20050;-72
2022/11/19 06:14:26;;;;;;;11.23;6.07;;;;;;;-3.57;100.00;101501.09;10585711;27;20043;-72
2022/11/19 06:19:26;;;;;;;11.30;6.37;;;;;;;-3.65;100.00;101488.34;10588278;27;20514;-69
2022/11/19 06:24:27;;;;;;;12.33;6.00;;;;;;;-3.66;100.00;101510.91;10553063;27;20047;-73
2022/11/19 06:29:27;;;;;;;10.03;5.83;;;;;;;-3.68;100.00;101514.72;10587717;27;20036;-73
2022/11/19 06:34:28;;;;;;;12.23;7.17;;;;;;;-3.72;100.00;101513.28;10569588;27;20121;-73
2022/11/19 06:39:28;;;;;;;10.27;5.97;;;;;;;-4.07;100.00;101459.16;10588056;27;20036;-73
2022/11/19 06:44:29;;;;;;;9.90;6.10;;;;;;;-3.73;100.00;101530.44;10583986;27;20042;-72
2022/11/19 06:49:29;;;;;;;10.60;5.90;;;;;;;-3.78;100.00;101524.63;10550494;27;20035;-73
2022/11/19 06:54:29;;;;;;;14.53;6.47;;;;;;;-3.90;100.00;101519.44;10586667;27;20044;-73
2022/11/19 06:59:30;;;;;;;13.53;7.67;;;;;;;-3.81;100.00;101535.72;10585157;27;20039;-73
2022/11/19 07:04:30;;;;;;;10.03;6.23;;;;;;;-3.79;100.00;101548.00;10587655;27;20047;-73
2022/11/19 07:09:31;;;;;;;12.90;8.23;;;;;;;-3.77;100.00;101547.88;10568274;28;20032;-73
2022/11/19 07:14:31;;;;;;;10.67;6.10;;;;;;;-3.78;100.00;101554.25;10583168;27;20050;-73
2022/11/19 07:19:32;;;;;;;11.63;6.83;;;;;;;-3.85;100.00;101535.97;10567276;27;20031;-73
2022/11/19 07:24:32;;;;;;;11.63;6.57;;;;;;;-3.76;100.00;101549.56;10566972;28;20337;-72
2022/11/19 07:29:33;;;;;;;11.40;6.77;;;;;;;-3.92;100.00;101526.81;10584182;28;20034;-73
2022/11/19 07:34:33;;;;;;;13.03;6.70;;;;;;;-3.68;100.00;101579.28;10550291;27;20028;-73
2022/11/19 07:39:34;;;;;;;10.80;6.03;;;;;;;-3.71;100.00;101574.22;10564034;27;20043;-73
2022/11/19 07:44:34;;;;;;;10.83;7.30;;;;;;;-3.65;100.00;101584.41;10615654;27;20039;-73
2022/11/19 07:49:35;;;;;;;11.70;7.00;;;;;;;-3.62;100.00;101594.88;10626185;27;20092;-74
2022/11/19 07:54:35;;;;;;;13.43;6.30;;;;;;;-3.66;100.00;101571.91;10624813;27;20074;-74
2022/11/19 07:59:36;;;;;;;14.47;6.60;;;;;;;-3.60;100.00;101562.44;10625506;27;20067;-73
2022/11/19 08:04:36;;;;;;;12.93;7.23;;;;;;;-3.46;100.00;101581.66;10622230;27;20108;-73
2022/11/19 08:09:37;;;;;;;12.63;7.23;;;;;;;-3.38;100.00;101564.78;10626928;27;20032;-73
2022/11/19 08:14:37;;;;;;;13.60;7.27;;;;;;;-3.34;100.00;101566.19;10623421;27;20061;-74
2022/11/19 08:19:38;;;;;;;10.97;6.53;;;;;;;-3.26;100.00;101566.31;10626123;27;20039;-69
2022/11/19 08:24:38;;;;;;;11.37;7.47;;;;;;;-3.33;100.00;101553.56;10616336;27;20039;-74
2022/11/19 08:29:38;;;;;;;10.47;6.60;;;;;;;-3.12;100.00;101570.38;10584299;27;20024;-73
2022/11/19 08:34:39;;;;;;;11.80;6.60;;;;;;;-3.08;100.00;101566.41;10581925;28;20027;-74
2022/11/19 08:39:39;;;;;;;11.43;6.67;;;;;;;-3.06;100.00;101559.00;10577980;27;20059;-73
2022/11/19 08:44:40;;;;;;;10.23;7.00;;;;;;;-2.96;100.00;101576.97;10565268;27;20042;-74
2022/11/19 08:49:40;;;;;;;13.37;7.30;;;;;;;-2.97;100.00;101576.13;10619332;27;20031;-73
2022/11/19 08:54:41;;;;;;;11.07;6.47;;;;;;;-2.81;100.00;101590.78;10616001;27;20043;-74
2022/11/19 08:59:41;;;;;;;12.77;7.47;;;;;;;-2.72;100.00;101587.22;10616041;27;20051;-73
2022/11/19 09:04:42;;;;;;;13.37;7.67;;;;;;;-2.67;100.00;101590.31;10600593;27;20035;-74
2022/11/19 09:09:42;;;;;;;11.17;6.93;;;;;;;-2.77;100.00;101566.13;10621795;27;20057;-74
2022/11/19 09:14:43;;;;;;;11.13;7.00;;;;;;;-2.54;100.00;101585.41;10624196;27;20257;-74
2022/11/19 09:19:43;;;;;;;12.10;7.60;;;;;;;-2.41;100.00;101595.84;10622052;27;20042;-74
2022/11/19 09:24:44;;;;;;;11.27;6.00;;;;;;;-2.42;100.00;101591.44;10629390;27;20042;-74
2022/11/19 09:29:44;;;;;;;13.33;6.90;;;;;;;-2.36;100.00;101582.72;10621893;27;20040;-74
2022/11/19 09:34:45;;;;;;;9.47;6.30;;;;;;;-2.16;100.00;101596.94;10569246;27;20035;-74
2022/11/19 09:39:45;;;;;;;11.73;6.60;;;;;;;-2.04;100.00;101602.97;10566743;27;20028;-73
2022/11/19 09:45:18;;;;;;;12.17;6.50;;;;;;;-1.86;100.00;101606.50;10548920;27;20086;-73
2022/11/19 09:50:23;;;;;;;10.73;6.37;;;;;;;-1.82;100.00;101590.84;10609589;27;20502;-73
2022/11/19 09:55:31;;;;;;;10.40;6.40;;;;;;;-1.59;100.00;101602.03;10597955;27;20126;-74
2022/11/19 10:00:31;;;;;;;9.57;6.27;;;;;;;-1.39;100.00;101604.50;10609677;27;20049;-74
2022/11/19 10:05:55;;;;;;;11.73;6.90;;;;;;;-1.13;100.00;101608.06;10632064;27;20050;-73
2022/11/19 10:11:05;;;;;;;13.07;5.83;;;;;;;-0.86;100.00;101595.38;10596884;27;20049;-73
2022/11/19 10:16:24;;;;;;;10.40;6.33;;;;;;;-0.55;100.00;101600.25;10569499;28;20040;-73
2022/11/19 10:21:58;;;;;;;10.83;5.70;;;;;;;-0.38;100.00;101595.72;10565161;27;20043;-72
2022/11/19 10:27:08;;;;;;;8.53;5.67;;;;;;;-0.26;100.00;101576.31;10549021;28;20395;-72
2022/11/19 10:32:12;;;;;;;7.83;5.33;;;;;;;-0.18;100.00;101558.41;10553908;27;20040;-73
2022/11/19 10:37:15;;;;;;;7.67;4.90;;;;;;;0.18;100.00;101591.44;10564802;28;20487;-72
2022/11/19 10:42:28;;;;;;;9.03;5.50;;;;;;;0.52;100.00;101583.13;10543664;27;20084;-72
2022/11/19 10:47:41;;;;;;;7.83;4.97;;;;;;;0.84;100.00;101578.66;10552069;27;20031;-73
2022/11/19 10:52:42;;;;;;;6.97;4.80;;;;;;;1.13;100.00;101569.09;10622369;27;20035;-73
2022/11/19 10:57:43;;;;;;;7.90;5.10;;;;;;;1.42;100.00;101569.31;10609111;27;20050;-74
2022/11/19 11:02:50;;;;;;;7.47;4.43;;;;;;;1.61;100.00;101572.59;10617368;27;20060;-72
2022/11/19 11:07:50;;;;;;;8.43;4.90;;;;;;;1.97;100.00;101564.75;10535117;27;20050;-72
2022/11/19 11:18:11;;;;;;;7.70;4.20;;;;;;;2.54;100.00;101533.53;10616104;27;20039;-73
2022/11/19 11:23:25;;;;;;;6.28;3.90;;;;;;;2.96;100.00;101539.38;10616742;27;20035;-73
2022/11/19 11:28:25;;;;;;;9.07;4.40;;;;;;;3.19;100.00;101533.84;10606973;27;20440;-73
2022/11/19 11:33:39;;;;;;;9.52;5.43;;;;;;;3.40;100.00;101539.31;10614338;27;20358;-73
2022/11/19 11:38:47;;;;;;;5.78;3.72;;;;;;;3.41;100.00;101513.81;10598277;27;20042;-73
2022/11/19 11:44:03;;;;;;;5.55;4.00;;;;;;;3.77;100.00;101526.56;10586407;27;20042;-73
2022/11/19 11:49:03;;;;;;;4.93;2.70;;;;;;;3.95;100.00;101507.03;10606740;27;20125;-73
2022/11/19 11:54:06;;;;;;;5.78;4.03;;;;;;;4.04;100.00;101518.66;10608705;27;20297;-73
2022/11/19 11:59:28;;;;;;;7.55;3.55;;;;;;;3.98;100.00;101505.81;10608473;27;20043;-73
2022/11/19 12:04:29;;;;;;;6.00;3.72;;;;;;;4.18;100.00;101501.38;10595098;27;20049;-73
2022/11/19 12:09:46;;;;;;;6.45;4.28;;;;;;;4.08;100.00;101478.22;10570714;27;20038;-73
2022/11/19 12:15:10;;;;;;;6.45;3.60;;;;;;;4.17;100.00;101498.84;10566462;28;20116;-73
2022/11/19 12:20:24;;;;;;;5.88;3.38;;;;;;;4.36;100.00;101486.41;10542988;28;20055;-73
2022/11/19 12:25:40;;;;;;;7.75;3.67;;;;;;;4.60;100.00;101469.59;10570294;28;20040;-71
2022/11/19 12:30:53;;;;;;;5.88;3.92;;;;;;;5.03;100.00;101482.22;10529752;28;20040;-71
2022/11/19 12:36:19;;;;;;;6.28;3.50;;;;;;;5.23;100.00;101471.38;10539841;28;20039;-71
2022/11/19 12:41:20;;;;;;;9.90;4.40;;;;;;;5.54;100.00;101478.19;10588496;27;20039;-71
2022/11/19 12:46:36;;;;;;;6.70;3.42;;;;;;;5.69;100.00;101462.47;10623331;27;20035;-72
2022/11/19 12:52:01;;;;;;;4.57;3.13;;;;;;;5.99;100.00;101415.66;10623529;27;20039;-71
2022/11/19 12:57:18;;;;;;;4.85;3.88;;;;;;;6.67;100.00;101451.72;10580764;27;20040;-70
2022/11/19 13:02:27;;;;;;;6.18;3.97;;;;;;;7.56;100.00;101453.88;10559712;28;20065;-71
2022/11/19 13:08:00;;;;;;;6.10;3.65;;;;;;;8.31;98.99;101451.22;10557769;28;20105;-72
2022/11/19 13:13:02;;;;;;;5.85;3.50;;;;;;;8.48;92.48;101429.56;10527040;28;20119;-71
2022/11/19 13:18:05;;;;;;;5.25;3.97;;;;;;;8.20;90.71;101438.22;10577137;28;20043;-72
2022/11/19 13:23:06;;;;;;;8.55;4.05;;;;;;;7.01;93.75;101452.47;10520282;28;20036;-72
2022/11/19 13:28:22;;;;;;;6.70;4.47;;;;;;;5.61;100.00;101473.59;10557584;28;20491;-72
2022/11/19 13:33:31;;;;;;;6.93;4.18;;;;;;;4.33;100.00;101473.19;10531144;28;20039;-72
2022/11/19 13:38:51;;;;;;;5.70;4.00;;;;;;;3.77;100.00;101503.94;10562334;27;20068;-73
2022/11/19 13:49:24;;;;;;;7.97;4.53;;;;;;;3.40;100.00;101476.72;10564215;27;20075;-73
2022/11/19 13:54:37;;;;;;;5.95;4.05;;;;;;;2.99;100.00;101469.09;10578478;27;20097;-72
2022/11/19 13:59:45;;;;;;;5.32;3.72;;;;;;;2.61;100.00;101469.22;10563484;27;20078;-72
2022/11/19 14:05:22;;;;;;;8.48;4.45;;;;;;;2.78;100.00;101501.69;10582147;27;20036;-71
2022/11/19 14:10:35;;;;;;;7.82;4.65;;;;;;;2.66;100.00;101501.28;10578798;28;20050;-71
2022/11/19 14:26:46;;;;;;;7.72;4.63;;;;;;;2.74;100.00;101481.31;10544158;28;20040;-72
2022/11/19 14:31:59;;;;;;;10.65;4.60;;;;;;;2.09;100.00;101488.25;10575133;28;20081;-72
2022/11/19 14:37:17;;;;;;;7.68;4.88;;;;;;;1.61;100.00;101485.75;10586087;28;20095;-72
2022/11/19 14:42:21;;;;;;;11.10;5.35;;;;;;;1.30;100.00;101489.38;10551971;28;20038;-72
2022/11/19 14:47:21;;;;;;;8.18;4.97;;;;;;;1.03;100.00;101492.53;10550962;28;20035;-72
2022/11/19 14:52:32;;;;;;;7.63;4.57;;;;;;;0.66;100.00;101470.47;10582098;27;20040;-72
2022/11/19 14:57:37;;;;;;;8.47;5.20;;;;;;;0.32;100.00;101451.78;10551124;28;20039;-72
2022/11/19 15:02:44;;;;;;;8.03;5.07;;;;;;;0.23;100.00;101460.94;10550376;28;20040;-72
2022/11/19 15:08:11;;;;;;;9.02;5.90;;;;;;;0.02;100.00;101456.06;10528114;28;20043;-72
2022/11/19 15:13:18;;;;;;;13.30;6.30;;;;;;;-0.16;100.00;101458.97;10542278;28;20141;-71
2022/11/19 15:18:39;;;;;;;12.30;6.53;;;;;;;-0.34;100.00;101456.41;10542987;28;20054;-72
2022/11/19 15:23:40;;;;;;;11.90;6.60;;;;;;;-0.52;100.00;101454.69;10554416;27;20039;-71
2022/11/19 15:29:05;;;;;;;11.33;6.73;;;;;;;-0.70;100.00;101454.84;10573287;27;20095;-72
2022/11/19 15:34:42;;;;;;;11.27;6.27;;;;;;;-0.86;100.00;101457.50;10585568;27;20044;-71
2022/11/19 15:39:45;;;;;;;11.40;6.77;;;;;;;-1.05;100.00;101447.84;10583861;28;20126;-71
2022/11/19 15:44:56;;;;;;;12.88;6.18;;;;;;;-1.19;100.00;101443.06;10565122;28;20047;-72
2022/11/19 15:49:56;;;;;;;12.93;6.57;;;;;;;-1.23;100.00;101458.72;10579374;27;20425;-72
2022/11/19 15:55:29;;;;;;;12.30;6.20;;;;;;;-1.35;100.00;101462.72;10573558;27;20084;-73
2022/11/19 16:00:30;;;;;;;17.17;6.70;;;;;;;-1.48;100.00;101458.63;10574264;27;20039;-71
2022/11/19 16:05:31;;;;;;;15.60;7.90;;;;;;;-1.60;100.00;101457.19;10567979;27;20027;-72
2022/11/19 16:10:33;;;;;;;26.30;8.97;;;;;;;-1.67;100.00;101461.56;10546082;28;20032;-71
2022/11/19 16:20:52;;;;;;;16.63;7.60;;;;;;;-1.80;100.00;101474.63;10582399;28;20091;-71
2022/11/19 16:25:53;;;;;;;15.17;7.97;;;;;;;-1.97;100.00;101461.00;10563957;28;20036;-72
2022/11/19 16:30:58;;;;;;;17.23;8.13;;;;;;;-1.89;100.00;101473.72;10546740;28;20028;-72
2022/11/19 16:36:15;;;;;;;12.57;7.60;;;;;;;-2.06;100.00;101449.31;10542406;27;20047;-71
2022/11/19 16:46:36;;;;;;;15.10;7.97;;;;;;;-2.17;100.00;101451.41;10560558;27;20574;-72
2022/11/19 16:51:52;;;;;;;18.03;8.20;;;;;;;-2.20;100.00;101451.75;10622177;27;20041;-72
2022/11/19 16:56:52;;;;;;;18.33;9.60;;;;;;;-2.56;100.00;101387.03;10584751;27;20070;-72
2022/11/19 17:01:55;;;;;;;19.37;10.67;;;;;;;-2.20;100.00;101454.44;10552075;27;20043;-71
2022/11/19 17:06:58;;;;;;;18.07;11.03;;;;;;;-2.33;100.00;101442.19;10519901;28;20032;-72
2022/11/19 17:12:17;;;;;;;19.37;10.20;;;;;;;-2.28;100.00;101445.25;10534656;27;20565;-72
2022/11/19 17:17:32;;;;;;;17.97;10.43;;;;;;;-2.32;100.00;101446.56;10525735;28;20507;-72
2022/11/19 17:22:33;;;;;;;13.53;8.03;;;;;;;-2.46;100.00;101430.94;10530764;28;20048;-72
2022/11/19 17:27:36;;;;;;;20.23;9.83;;;;;;;-2.39;100.00;101450.91;10508396;28;20027;-72
2022/11/19 17:32:41;;;;;;;16.90;9.70;;;;;;;-2.43;100.00;101457.63;10526310;28;20092;-73
2022/11/19 17:37:41;;;;;;;18.83;10.90;;;;;;;-2.45;100.00;101462.31;10512837;28;20055;-73
2022/11/19 17:48:01;;;;;;;21.00;12.10;;;;;;;-2.52;100.00;101470.19;10568385;28;20368;-72
2022/11/19 17:53:02;;;;;;;23.20;13.23;;;;;;;-2.58;100.00;101459.16;10552285;28;20035;-73
2022/11/19 17:58:02;;;;;;;21.27;12.93;;;;;;;-2.61;100.00;101464.84;10586435;28;20434;-73
2022/11/19 18:03:03;;;;;;;23.90;14.87;;;;;;;-2.58;100.00;101475.31;10587870;28;20761;-72
2022/11/19 18:08:03;;;;;;;28.10;16.40;;;;;;;-2.63;100.00;101475.78;10569368;28;20031;-73
2022/11/19 18:13:04;;;;;;;31.67;18.27;;;;;;;-2.69;100.00;101463.78;10587567;28;20028;-73
2022/11/19 18:18:04;;;;;;;34.00;20.17;;;;;;;-2.72;100.00;101479.41;10569337;28;20050;-73
2022/11/19 18:23:05;;;;;;;44.27;24.37;;;;;;;-2.69;100.00;101490.75;10567590;28;20068;-73
2022/11/19 18:28:05;;;;;;;48.30;27.87;;;;;;;-2.70;100.00;101478.25;10585397;28;20043;-68
2022/11/19 18:33:08;;;;;;;53.40;29.17;;;;;;;-2.74;100.00;101482.25;10605504;27;20498;-73
2022/11/19 18:38:08;;;;;;;51.33;30.13;;;;;;;-2.71;100.00;101473.88;10585635;27;20042;-73
2022/11/19 18:48:28;;;;;;;46.17;24.70;;;;;;;-2.85;100.00;101444.75;10623823;27;20098;-74
2022/11/19 18:53:28;;;;;;;38.57;21.13;;;;;;;-2.80;100.00;101445.13;10606169;27;20042;-77
2022/11/19 18:58:29;;;;;;;39.20;23.57;;;;;;;-2.85;100.00;101447.44;10546500;28;20075;-74
2022/11/19 19:03:29;;;;;;;38.80;21.07;;;;;;;-2.85;100.00;101450.16;10566618;28;20028;-73
2022/11/19 19:08:30;;;;;;;37.80;22.03;;;;;;;-2.79;100.00;101445.97;10564335;28;20073;-74
2022/11/19 19:13:30;;;;;;;41.07;22.30;;;;;;;-2.88;100.00;101426.19;10528155;28;20384;-74
2022/11/19 19:18:31;;;;;;;39.40;22.40;;;;;;;-2.84;100.00;101433.81;10530548;28;20039;-75
2022/11/19 19:23:31;;;;;;;40.93;24.60;;;;;;;-2.84;100.00;101449.13;10510531;27;20630;-74
2022/11/19 19:28:32;;;;;;;51.47;26.47;;;;;;;-2.90;100.00;101449.75;10509501;28;20050;-74
2022/11/19 19:33:33;;;;;;;48.13;25.63;;;;;;;-2.99;100.00;101442.59;10561070;28;20047;-74
2022/11/19 19:38:33;;;;;;;45.30;24.43;;;;;;;-3.02;100.00;101450.94;10565702;28;20039;-74
2022/11/19 19:43:34;;;;;;;43.10;24.33;;;;;;;-3.18;100.00;101436.31;10573630;27;20027;-75
2022/11/19 19:48:35;;;;;;;40.23;22.57;;;;;;;-3.13;100.00;101450.16;10550619;27;20028;-75
2022/11/19 19:53:36;;;;;;;40.90;20.87;;;;;;;-3.21;100.00;101441.97;10547119;28;20039;-75
2022/11/19 19:58:37;;;;;;;38.70;21.63;;;;;;;-3.29;100.00;101420.34;10546845;28;20129;-75
2022/11/19 20:03:38;;;;;;;36.77;19.00;;;;;;;-3.23;100.00;101430.50;10565094;28;20039;-74
2022/11/19 20:08:38;;;;;;;37.37;20.80;;;;;;;-3.32;100.00;101426.03;10564508;28;20051;-75
2022/11/19 20:13:39;;;;;;;29.17;16.87;;;;;;;-3.28;100.00;101428.28;10545380;27;20043;-75
2022/11/19 20:18:40;;;;;;;32.63;16.00;;;;;;;-3.36;100.00;101421.94;10563630;28;20047;-75
2022/11/19 20:23:40;;;;;;;38.03;18.90;;;;;;;-3.41;100.00;101424.22;10581821;28;20501;-75
2022/11/19 20:28:41;;;;;;;35.57;18.87;;;;;;;-3.38;100.00;101423.94;10545895;28;20095;-75
2022/11/19 20:33:42;;;;;;;30.07;17.47;;;;;;;-3.27;100.00;101421.03;10547145;28;20422;-74
2022/11/19 20:38:44;;;;;;;30.17;16.23;;;;;;;-3.22;100.00;101428.66;10565552;27;20031;-75
2022/11/19 20:49:04;;;;;;;32.80;17.43;;;;;;;-3.33;100.00;101418.94;10566812;28;20110;-75
2022/11/19 20:54:06;;;;;;;29.10;16.13;;;;;;;-3.29;100.00;101420.34;10579493;28;20040;-75
2022/11/19 20:59:06;;;;;;;33.33;16.70;;;;;;;-3.26;100.00;101425.44;10545350;28;20043;-74
2022/11/19 21:04:07;;;;;;;34.73;18.00;;;;;;;-3.29;100.00;101417.66;10546087;28;20038;-75
2022/11/19 21:09:08;;;;;;;30.47;17.63;;;;;;;-3.62;100.00;101355.34;10581909;27;20302;-74
2022/11/19 21:14:08;;;;;;;28.20;16.20;;;;;;;-3.12;100.00;101419.53;10608781;27;20051;-75
2022/11/19 21:19:09;;;;;;;29.43;16.60;;;;;;;-2.97;100.00;101427.13;10560975;28;20039;-74
2022/11/19 21:24:10;;;;;;;36.90;19.00;;;;;;;-2.84;100.00;101416.78;10560555;28;20058;-75
2022/11/19 21:29:11;;;;;;;34.87;20.27;;;;;;;-2.62;100.00;101431.66;10586628;28;20075;-74
2022/11/19 21:34:19;;;;;;;56.30;23.33;;;;;;;-2.60;100.00;101405.41;10618638;28;20035;-74
2022/11/19 21:39:19;;;;;;;66.30;26.80;;;;;;;-2.52;100.00;101385.72;10568927;28;20051;-75
2022/11/19 21:44:20;;;;;;;60.73;27.67;;;;;;;-2.30;100.00;101404.13;10546860;28;20039;-75
2022/11/19 21:49:20;;;;;;;52.80;23.33;;;;;;;-2.15;100.00;101403.53;10561719;28;20028;-75
2022/11/19 21:54:21;;;;;;;44.30;21.33;;;;;;;-2.21;100.00;101385.28;10560391;28;20036;-75
2022/11/19 21:59:21;;;;;;;42.53;20.67;;;;;;;-1.95;100.00;101391.53;10555753;28;20076;-75
2022/11/19 22:04:22;;;;;;;40.63;20.37;;;;;;;-1.97;100.00;101388.16;10583883;28;20065;-75
2022/11/19 22:09:22;;;;;;;37.20;21.23;;;;;;;-1.91;100.00;101401.00;10564586;28;20067;-75
2022/11/19 22:14:23;;;;;;;39.47;19.47;;;;;;;-1.84;100.00;101393.09;10561010;28;20069;-75
2022/11/19 22:19:23;;;;;;;35.10;19.90;;;;;;;-1.81;100.00;101383.88;10560968;28;20028;-75
2022/11/19 22:24:24;;;;;;;35.30;20.13;;;;;;;-1.70;100.00;101388.97;10578129;28;20456;-75
2022/11/19 22:29:24;;;;;;;35.90;18.17;;;;;;;-1.77;100.00;101369.03;10578764;28;20035;-74
2022/11/19 22:34:25;;;;;;;35.10;21.00;;;;;;;-1.60;100.00;101378.06;10567962;28;20097;-75
2022/11/19 22:39:25;;;;;;;34.47;18.83;;;;;;;-1.54;100.00;101372.84;10550701;28;20043;-75
2022/11/19 22:44:26;;;;;;;34.00;19.43;;;;;;;-1.50;100.00;101374.22;10564400;27;20039;-76
2022/11/19 22:49:26;;;;;;;36.07;20.23;;;;;;;-1.46;100.00;101380.16;10567663;28;20525;-75
2022/11/19 22:54:27;;;;;;;36.30;21.30;;;;;;;-1.40;100.00;101378.66;10546011;28;20040;-69
2022/11/19 22:59:27;;;;;;;40.13;21.00;;;;;;;-1.42;100.00;101366.16;10550106;28;20443;-75
2022/11/19 23:04:28;;;;;;;32.17;18.70;;;;;;;-1.31;100.00;101380.38;10550758;28;20080;-75
2022/11/19 23:09:29;;;;;;;35.33;19.43;;;;;;;-1.26;100.00;101369.91;10585159;28;20023;-75
2022/11/19 23:14:29;;;;;;;47.83;19.57;;;;;;;-1.25;100.00;101347.28;10583757;27;20047;-75
2022/11/19 23:19:29;;;;;;;26.87;15.90;;;;;;;-1.09;100.00;101363.53;10577977;27;20035;-75
2022/11/19 23:24:30;;;;;;;30.33;15.87;;;;;;;-1.24;100.00;101330.06;10583905;27;20032;-74
2022/11/19 23:29:30;;;;;;;30.57;17.50;;;;;;;-1.18;100.00;101337.50;10584078;27;20429;-70
2022/11/19 23:34:31;;;;;;;30.23;15.33;;;;;;;-1.13;100.00;101348.66;10567528;27;20051;-75
2022/11/19 23:39:31;;;;;;;27.40;16.37;;;;;;;-1.16;100.00;101343.56;10583140;27;20035;-74
2022/11/19 23:44:32;;;;;;;28.60;16.67;;;;;;;-1.03;100.00;101348.53;10596770;27;20504;-75
2022/11/19 23:49:32;;;;;;;28.30;15.13;;;;;;;-1.07;100.00;101339.06;10582469;27;20036;-75
2022/11/19 23:54:33;;;;;;;28.70;17.40;;;;;;;-1.03;100.00;101337.72;10581717;27;20069;-74